Aviation Digital Data Service (ADDS)

Output produced by TAFs form (1131 UTC 19 January 2018)
found at http://www.aviationweather.gov/adds/tafs/
 
RJFT 191100Z 06002KT CAVOK 05/03 Q1019
TAF RJFT 191107Z 1912/2018 07004KT 8000 FEW030 
     TEMPO 1918/2000 4000 BR 
     BECMG 2000/2003 28005KT 
     BECMG 2009/2012 07004KT